Impacts METAR Board
IDs:

KBWD - Brownwood Muni, TX, US

Updated at: 1300 UTC 13 Dec 2019
Potential Impact None Slight Moderate High
Time 13/01Z 13/02Z 13/03Z 13/04Z 13/05Z 13/06Z 13/07Z 13/08Z 13/09Z 13/10Z 13/11Z 13/12Z 13/13Z
Temp54 50 48 45 41 39 37 36 36 34 37 34 32
Dewpt41 41 41 41 39 37 36 34 34 32 36 32 32
Altim30.04 30.04 30.03 30.02 30.03 30.01 29.99 29.98 29.95 29.95 29.92 29.92 29.92
VIS10 10 10 10 10 10 10 10 10 10 10 10 10
CIG-- -- -- -- -- -- -- -- -- -- -- -- --
CoverCLRCLRFEWFEWCLRCLRCLRCLRCLRCLRCLRCLRCLR
FltCatVFRVFRVFRVFRVFRVFRVFRVFRVFRVFRVFRVFRVFR
WX--------------------------
WDir18015014013000000000
WSpd4 4 4 5 0 0 0 0 0 0 0 0
WGst-- -- -- -- -- -- -- -- -- -- -- -- --
Raw hourly METARs
KBWD 130055Z AUTO 18004KT 10SM CLR 12/05 A3004 RMK AO1
KBWD 130155Z AUTO 15004KT 10SM CLR 10/05 A3004 RMK AO1
KBWD 130255Z AUTO 14004KT 10SM FEW038 09/05 A3003 RMK AO1
KBWD 130355Z AUTO 13005KT 10SM FEW036 07/05 A3002 RMK AO1
KBWD 130455Z AUTO 00000KT 10SM CLR 05/04 A3003 RMK AO1
KBWD 130555Z AUTO 00000KT 10SM CLR 04/03 A3001 RMK AO1
KBWD 130655Z AUTO 00000KT 10SM CLR 03/02 A2999 RMK AO1
KBWD 130755Z AUTO 10SM CLR 02/01 A2998 RMK AO1
KBWD 130855Z AUTO 00000KT 10SM CLR 02/01 A2995 RMK AO1
KBWD 130955Z AUTO 00000KT 10SM CLR 01/00 A2995 RMK AO1
KBWD 131055Z AUTO 00000KT 10SM CLR 03/02 A2992 RMK AO1
KBWD 131155Z AUTO 00000KT 10SM CLR 01/00 A2992 RMK AO1
KBWD 131255Z AUTO 00000KT 10SM CLR 00/00 A2992 RMK AO1



Page loaded:  13:49 UTC  |   05:49 AM Pacific  |   06:49 AM Mountain  |   07:49 AM Central  |   08:49 AM Eastern

 

ADVISORIES

FORECASTS

FORECASTS

OBSERVATIONS

USER TOOLS

ABOUT US